Time;durP1;ratioP1;P1;durP2;ratioP2;P2;SDS_P1;SDS_P2;PMS_P1;PMS_P2;Temp;Humidity;BMP_temperature;BMP_pressure;BME280_temperature;BME280_humidity;BME280_pressure;Samples;Min_cycle;Max_cycle;Signal;HPM_P1;HPM_P2
2024/01/26 00:04:43;;;;;;;2.80;1.70;;;23.10;52.10;;;;;;221804;1269;24260;-58
2024/01/26 00:09:48;;;;;;;3.00;1.80;;;23.00;51.70;;;;;;221851;1265;24205;-57
2024/01/26 00:14:52;;;;;;;2.50;1.50;;;23.10;51.70;;;;;;221764;1266;25165;-57
2024/01/26 00:19:56;;;;;;;3.30;1.30;;;23.00;51.90;;;;;;221878;1269;24228;-58
2024/01/26 00:25:01;;;;;;;2.60;1.50;;;22.90;51.70;;;;;;222037;1270;22561;-56
2024/01/26 00:30:06;;;;;;;3.60;1.70;;;23.00;51.80;;;;;;222046;1268;22520;-56
2024/01/26 00:35:10;;;;;;;2.80;1.50;;;22.90;51.70;;;;;;221930;1266;24304;-56
2024/01/26 00:40:14;;;;;;;2.70;1.70;;;22.80;52.00;;;;;;221900;1266;24198;-59
2024/01/26 00:45:18;;;;;;;2.70;1.50;;;22.80;51.80;;;;;;221635;1267;24350;-57
2024/01/26 00:50:23;;;;;;;2.30;1.70;;;22.90;51.70;;;;;;221920;1266;22570;-57
2024/01/26 00:55:29;;;;;;;4.10;1.60;;;23.00;51.60;;;;;;221970;1264;24250;-57
2024/01/26 01:00:33;;;;;;;1.50;1.20;;;23.10;51.20;;;;;;222160;1266;24183;-56
2024/01/26 01:05:39;;;;;;;1.50;1.20;;;23.10;51.00;;;;;;221899;1264;24382;-57
2024/01/26 01:10:43;;;;;;;2.60;1.20;;;23.20;51.00;;;;;;222140;1265;24625;-58
2024/01/26 01:15:47;;;;;;;2.00;1.50;;;23.20;51.00;;;;;;221721;1270;22636;-58
2024/01/26 01:20:51;;;;;;;3.50;1.40;;;23.30;51.00;;;;;;221913;1267;24197;-57
2024/01/26 01:25:56;;;;;;;2.50;1.30;;;23.30;50.80;;;;;;221964;1266;22550;-58
2024/01/26 01:31:00;;;;;;;3.30;1.50;;;23.30;50.80;;;;;;222179;1270;22523;-58
2024/01/26 01:36:05;;;;;;;3.10;1.30;;;23.20;51.10;;;;;;222126;1269;24671;-56
2024/01/26 01:41:09;;;;;;;2.90;1.20;;;23.30;50.70;;;;;;222422;1266;22534;-58
2024/01/26 01:46:13;;;;;;;2.90;1.80;;;23.20;51.00;;;;;;221949;1269;22814;-56
2024/01/26 01:51:17;;;;;;;1.70;1.10;;;23.20;51.00;;;;;;221955;1262;22533;-56
2024/01/26 01:56:23;;;;;;;1.40;1.10;;;23.10;50.80;;;;;;222023;1267;24188;-57
2024/01/26 02:01:27;;;;;;;1.60;1.30;;;23.10;51.10;;;;;;222062;1270;25581;-58
2024/01/26 02:06:31;;;;;;;2.10;1.20;;;23.10;51.10;;;;;;222226;1263;24244;-58
2024/01/26 02:11:36;;;;;;;1.60;1.10;;;23.10;51.10;;;;;;221838;1269;23451;-57
2024/01/26 02:16:40;;;;;;;1.90;1.30;;;22.90;51.60;;;;;;221988;1255;22648;-58
2024/01/26 02:21:47;;;;;;;3.10;1.40;;;23.00;51.20;;;;;;221919;1269;24205;-58
2024/01/26 02:26:52;;;;;;;1.60;1.40;;;23.10;51.00;;;;;;222047;1254;22785;-57
2024/01/26 02:31:56;;;;;;;2.70;1.80;;;23.20;50.80;;;;;;221955;1268;22603;-57
2024/01/26 02:37:00;;;;;;;1.30;1.00;;;23.20;50.80;;;;;;222151;1269;24199;-60
2024/01/26 02:42:05;;;;;;;1.50;1.30;;;23.20;50.60;;;;;;221981;1269;22987;-58
2024/01/26 02:47:09;;;;;;;2.20;1.20;;;23.30;50.90;;;;;;222177;1263;23951;-58
2024/01/26 02:52:14;;;;;;;2.70;1.40;;;23.30;50.40;;;;;;222048;1264;24196;-57
2024/01/26 02:57:18;;;;;;;2.40;1.30;;;23.30;50.40;;;;;;222355;1260;22629;-57
2024/01/26 03:02:22;;;;;;;2.40;1.30;;;23.30;50.50;;;;;;222375;1254;25499;-57
2024/01/26 03:07:27;;;;;;;2.60;1.40;;;23.30;50.30;;;;;;222385;1264;24207;-57
2024/01/26 03:12:36;;;;;;;1.60;1.20;;;23.30;50.50;;;;;;222205;1269;24365;-59
2024/01/26 03:17:40;;;;;;;2.30;1.30;;;23.30;50.30;;;;;;221879;1263;24294;-58
2024/01/26 03:22:44;;;;;;;2.80;1.60;;;23.20;50.50;;;;;;222412;1270;24324;-55
2024/01/26 03:27:48;;;;;;;1.40;1.20;;;23.10;50.40;;;;;;221831;1269;22479;-57
2024/01/26 03:32:53;;;;;;;2.80;1.50;;;23.20;50.20;;;;;;221872;1269;22519;-56
2024/01/26 03:37:58;;;;;;;1.20;1.00;;;23.20;50.80;;;;;;221721;1270;24066;-57
2024/01/26 03:43:02;;;;;;;1.60;1.20;;;23.10;50.80;;;;;;221605;1254;24205;-58
2024/01/26 03:48:07;;;;;;;2.00;1.20;;;23.00;51.00;;;;;;222103;1264;24218;-58
2024/01/26 03:53:11;;;;;;;7.70;1.70;;;23.00;50.70;;;;;;222257;1255;25273;-58
2024/01/26 03:58:15;;;;;;;1.70;1.00;;;23.00;51.00;;;;;;221718;1270;24218;-58
2024/01/26 04:03:19;;;;;;;1.60;0.90;;;23.00;50.60;;;;;;221778;1257;24284;-59
2024/01/26 04:08:24;;;;;;;1.60;1.30;;;23.10;50.40;;;;;;221753;1266;24385;-58
2024/01/26 04:13:28;;;;;;;1.10;1.00;;;23.20;50.30;;;;;;221558;1268;22563;-55
2024/01/26 04:18:32;;;;;;;1.00;0.90;;;23.20;49.90;;;;;;220785;1267;24231;-56
2024/01/26 04:23:37;;;;;;;1.40;1.30;;;23.30;50.30;;;;;;220923;1261;22554;-56
2024/01/26 04:28:41;;;;;;;2.40;1.40;;;23.20;50.30;;;;;;221079;1274;24459;-58
2024/01/26 04:33:47;;;;;;;2.10;1.20;;;23.20;50.20;;;;;;220874;1267;24249;-57
2024/01/26 04:38:52;;;;;;;1.40;1.30;;;23.30;49.90;;;;;;222097;1269;22639;-58
2024/01/26 04:43:56;;;;;;;3.80;1.60;;;23.30;49.80;;;;;;221964;1267;23172;-59
2024/01/26 04:49:01;;;;;;;1.30;1.20;;;23.30;49.60;;;;;;222028;1255;22672;-58
2024/01/26 04:54:05;;;;;;;1.70;1.10;;;23.30;49.70;;;;;;222058;1267;24243;-58
2024/01/26 04:59:09;;;;;;;1.20;0.90;;;23.30;49.80;;;;;;222183;1254;24241;-58
2024/01/26 05:04:14;;;;;;;1.10;0.90;;;23.10;50.20;;;;;;221796;1264;25287;-58
2024/01/26 05:09:19;;;;;;;1.70;1.10;;;23.10;50.40;;;;;;222139;1256;23917;-58
2024/01/26 05:14:23;;;;;;;1.20;1.00;;;23.20;50.20;;;;;;222215;1256;24210;-57
2024/01/26 05:19:28;;;;;;;1.60;1.10;;;23.10;50.40;;;;;;221987;1267;22583;-55
2024/01/26 05:24:33;;;;;;;2.10;1.40;;;23.10;50.40;;;;;;221747;1264;461507;-61
2024/01/26 05:29:37;;;;;;;1.60;1.00;;;23.00;50.60;;;;;;221758;1266;22536;-56
2024/01/26 05:34:42;;;;;;;3.50;1.20;;;23.00;50.50;;;;;;221917;1257;22601;-58
2024/01/26 05:39:47;;;;;;;1.80;1.30;;;23.00;50.50;;;;;;222458;1263;24239;-55
2024/01/26 05:44:51;;;;;;;2.30;0.90;;;23.00;50.70;;;;;;221933;1262;22523;-58
2024/01/26 05:49:56;;;;;;;1.80;1.20;;;22.90;50.80;;;;;;221946;1267;22544;-57
2024/01/26 05:55:00;;;;;;;1.20;1.00;;;22.80;50.80;;;;;;221813;1270;22524;-58
2024/01/26 06:00:06;;;;;;;1.20;1.10;;;22.80;50.90;;;;;;221661;1260;22635;-57
2024/01/26 06:05:10;;;;;;;1.70;0.90;;;22.80;50.60;;;;;;222046;1254;22526;-58
2024/01/26 06:10:16;;;;;;;1.90;1.00;;;23.00;50.90;;;;;;222037;1254;22547;-57
2024/01/26 06:15:21;;;;;;;1.30;1.10;;;23.20;50.80;;;;;;221849;1264;25490;-56
2024/01/26 06:20:30;;;;;;;1.60;1.20;;;23.30;50.00;;;;;;221811;1267;22662;-58
2024/01/26 06:25:35;;;;;;;1.60;1.20;;;23.20;50.50;;;;;;221972;1262;22546;-56
2024/01/26 06:30:40;;;;;;;1.70;1.10;;;23.30;50.20;;;;;;221774;1261;25153;-57
2024/01/26 06:35:44;;;;;;;1.50;0.80;;;23.30;49.80;;;;;;221861;1263;24205;-57
2024/01/26 06:40:49;;;;;;;1.40;1.00;;;23.20;49.80;;;;;;222090;1263;24376;-57
2024/01/26 06:45:54;;;;;;;3.80;1.00;;;23.30;49.90;;;;;;222160;1266;22527;-59
2024/01/26 06:50:58;;;;;;;1.30;0.90;;;23.10;50.20;;;;;;222141;1264;24140;-57
2024/01/26 06:56:03;;;;;;;1.30;1.00;;;23.10;50.50;;;;;;221953;1254;24268;-57
2024/01/26 07:01:07;;;;;;;1.20;0.60;;;23.00;51.30;;;;;;222074;1269;22533;-58
2024/01/26 07:06:12;;;;;;;3.20;1.50;;;23.00;51.20;;;;;;222129;1256;24192;-57
2024/01/26 07:11:19;;;;;;;2.10;1.40;;;22.80;50.70;;;;;;221738;1264;24192;-58
2024/01/26 07:16:24;;;;;;;3.30;1.20;;;22.80;51.30;;;;;;222118;1264;22523;-57
2024/01/26 07:21:29;;;;;;;1.80;1.00;;;22.80;51.30;;;;;;221986;1254;22527;-58
2024/01/26 07:26:34;;;;;;;3.20;1.20;;;22.70;51.60;;;;;;221887;1263;24238;-58
2024/01/26 07:31:41;;;;;;;5.80;1.30;;;22.80;51.50;;;;;;221678;1263;22739;-57
2024/01/26 07:36:45;;;;;;;4.30;1.50;;;22.80;51.40;;;;;;221960;1262;23047;-56
2024/01/26 07:41:49;;;;;;;5.00;1.30;;;22.70;52.10;;;;;;221759;1263;23980;-55
2024/01/26 07:46:54;;;;;;;2.10;1.20;;;22.80;51.50;;;;;;221488;1249;22602;-57
2024/01/26 07:51:58;;;;;;;6.20;1.40;;;22.70;52.00;;;;;;221880;1255;23428;-58
2024/01/26 07:57:06;;;;;;;3.80;1.20;;;22.60;52.00;;;;;;222088;1267;24310;-58
2024/01/26 08:02:11;;;;;;;5.10;1.50;;;22.70;52.00;;;;;;221600;1263;24255;-55
2024/01/26 08:07:15;;;;;;;2.90;1.40;;;22.70;51.50;;;;;;221770;1266;22773;-53
2024/01/26 08:12:21;;;;;;;7.20;1.20;;;22.60;51.00;;;;;;226156;1270;22538;-55
2024/01/26 08:17:41;;;;;;;4.10;2.60;;;22.60;51.00;;;;;;223110;1267;24220;-56
2024/01/26 08:22:46;;;;;;;3.70;1.30;;;22.70;50.70;;;;;;221639;1270;26564;-57
2024/01/26 08:27:53;;;;;;;4.10;1.60;;;22.70;50.30;;;;;;221482;1268;23793;-57
2024/01/26 08:32:58;;;;;;;3.70;1.60;;;22.60;50.40;;;;;;221259;1266;22723;-57
2024/01/26 08:38:03;;;;;;;2.50;1.30;;;22.80;50.20;;;;;;221506;1266;22524;-56
2024/01/26 08:43:08;;;;;;;2.20;1.40;;;23.00;50.00;;;;;;222035;1251;22548;-57
2024/01/26 08:48:16;;;;;;;4.90;1.60;;;23.10;50.10;;;;;;221642;1265;22614;-55
2024/01/26 08:53:21;;;;;;;4.50;1.60;;;23.20;49.50;;;;;;221867;1267;22521;-55
2024/01/26 08:58:25;;;;;;;2.80;1.60;;;23.30;49.80;;;;;;221787;1266;22651;-57
2024/01/26 09:03:30;;;;;;;3.30;1.70;;;23.20;49.30;;;;;;221724;1261;24405;-55
2024/01/26 09:08:35;;;;;;;2.80;1.70;;;23.20;49.20;;;;;;221777;1267;24249;-56
2024/01/26 09:13:40;;;;;;;2.90;1.70;;;23.20;49.20;;;;;;222068;1267;22586;-55
2024/01/26 09:18:44;;;;;;;3.60;1.60;;;23.30;49.20;;;;;;221576;1262;25360;-57
2024/01/26 09:23:50;;;;;;;2.70;1.40;;;23.20;49.20;;;;;;221597;1269;22847;-55
2024/01/26 09:28:56;;;;;;;4.00;1.50;;;23.40;49.00;;;;;;221712;1265;24699;-56
2024/01/26 09:34:00;;;;;;;3.50;2.10;;;23.30;49.10;;;;;;221853;1267;22533;-54
2024/01/26 09:39:05;;;;;;;3.70;2.30;;;23.30;49.30;;;;;;221780;1262;25293;-56
2024/01/26 09:44:10;;;;;;;4.00;2.10;;;23.30;49.60;;;;;;221802;1265;24231;-54
2024/01/26 09:49:15;;;;;;;4.20;2.20;;;23.40;49.70;;;;;;221709;1263;22627;-57
2024/01/26 09:54:20;;;;;;;3.10;1.90;;;23.30;50.10;;;;;;221786;1267;22533;-55
2024/01/26 09:59:27;;;;;;;4.80;2.00;;;23.20;50.30;;;;;;221584;1270;25368;-56
2024/01/26 10:04:31;;;;;;;2.70;2.10;;;23.10;50.50;;;;;;221910;1267;22862;-55
2024/01/26 10:09:37;;;;;;;3.10;1.80;;;23.10;50.10;;;;;;222599;1265;24349;-56
2024/01/26 10:14:41;;;;;;;2.50;1.80;;;23.10;50.00;;;;;;221852;1255;22519;-55
2024/01/26 10:19:47;;;;;;;4.40;2.10;;;23.10;50.10;;;;;;225536;1266;25237;-54
2024/01/26 10:24:51;;;;;;;3.10;2.10;;;23.10;50.00;;;;;;222989;1265;22558;-57
2024/01/26 10:29:56;;;;;;;3.50;1.90;;;23.10;49.80;;;;;;222786;1269;25573;-56
2024/01/26 10:35:03;;;;;;;2.80;1.80;;;23.10;49.10;;;;;;221958;1267;22517;-57
2024/01/26 10:40:10;;;;;;;4.90;2.10;;;23.00;49.20;;;;;;221803;1262;24257;-56
2024/01/26 10:45:16;;;;;;;3.40;2.00;;;23.00;49.20;;;;;;221888;1264;22518;-56
2024/01/26 10:50:21;;;;;;;5.70;3.20;;;23.00;49.30;;;;;;221786;1255;22610;-55
2024/01/26 10:55:26;;;;;;;8.50;3.70;;;22.90;50.00;;;;;;221794;1263;22525;-57
2024/01/26 11:00:33;;;;;;;6.50;3.50;;;23.00;51.50;;;;;;221966;1260;22556;-56
2024/01/26 11:05:38;;;;;;;6.80;2.80;;;23.10;51.10;;;;;;221759;1269;25296;-57
2024/01/26 11:10:43;;;;;;;8.70;2.90;;;22.90;51.00;;;;;;222335;1258;25161;-55
2024/01/26 11:15:49;;;;;;;6.40;3.40;;;22.90;50.80;;;;;;221738;1267;23547;-57
2024/01/26 11:20:54;;;;;;;6.70;3.00;;;22.90;50.80;;;;;;221697;1263;22521;-56
2024/01/26 11:25:58;;;;;;;6.80;2.70;;;22.90;50.80;;;;;;221613;1267;24359;-55
2024/01/26 11:31:04;;;;;;;7.60;3.00;;;22.90;50.70;;;;;;221980;1262;22540;-56
2024/01/26 11:36:11;;;;;;;5.60;2.40;;;22.90;51.10;;;;;;221931;1262;22517;-56
2024/01/26 11:41:16;;;;;;;5.80;2.90;;;22.80;50.50;;;;;;222145;1259;24461;-57
2024/01/26 11:46:23;;;;;;;4.80;2.80;;;22.90;50.40;;;;;;222504;1265;24873;-55
2024/01/26 11:51:30;;;;;;;5.40;3.00;;;22.90;50.20;;;;;;221893;1260;24113;-54
2024/01/26 11:56:34;;;;;;;5.40;2.50;;;22.90;50.10;;;;;;222074;1263;23130;-57
2024/01/26 12:01:39;;;;;;;6.50;2.70;;;22.90;50.00;;;;;;221835;1262;22533;-56
2024/01/26 12:06:43;;;;;;;4.40;2.30;;;22.80;50.30;;;;;;222457;1262;22701;-56
2024/01/26 12:11:51;;;;;;;4.30;2.50;;;22.90;49.70;;;;;;221788;1269;22527;-55
2024/01/26 12:16:55;;;;;;;5.50;2.50;;;22.80;50.00;;;;;;221763;1269;24283;-58
2024/01/26 12:22:00;;;;;;;3.90;2.60;;;22.90;49.60;;;;;;221863;1261;23896;-56
2024/01/26 12:27:04;;;;;;;4.50;2.60;;;22.80;49.70;;;;;;221857;1265;22519;-55
2024/01/26 12:32:08;;;;;;;5.00;2.30;;;22.90;50.20;;;;;;222072;1264;23681;-57
2024/01/26 12:37:14;;;;;;;3.80;2.60;;;22.80;49.30;;;;;;222295;1258;25223;-56
2024/01/26 12:42:18;;;;;;;5.90;2.80;;;22.90;49.20;;;;;;221781;1256;22521;-55
2024/01/26 12:47:23;;;;;;;3.50;2.20;;;22.90;49.20;;;;;;221943;1265;22519;-58
2024/01/26 12:52:29;;;;;;;5.20;2.30;;;22.80;48.90;;;;;;222065;1267;25292;-57
2024/01/26 12:57:33;;;;;;;3.90;2.60;;;23.00;48.50;;;;;;221984;1264;24250;-56
2024/01/26 13:02:38;;;;;;;3.90;2.80;;;23.00;48.50;;;;;;222231;1249;25235;-53
2024/01/26 13:07:42;;;;;;;4.30;2.50;;;23.20;48.40;;;;;;222205;1264;22762;-58
2024/01/26 13:12:47;;;;;;;6.30;2.90;;;23.20;48.20;;;;;;221762;1269;22559;-57
2024/01/26 13:17:54;;;;;;;5.30;2.60;;;23.30;47.60;;;;;;222023;1262;24228;-58
2024/01/26 13:22:58;;;;;;;4.10;2.30;;;23.30;47.10;;;;;;222189;1266;22529;-57
2024/01/26 13:28:03;;;;;;;5.30;3.10;;;23.10;47.50;;;;;;221971;1263;22916;-56
2024/01/26 13:33:08;;;;;;;5.00;2.70;;;23.10;47.50;;;;;;222378;1246;24321;-57
2024/01/26 13:38:12;;;;;;;2.80;2.60;;;23.10;47.00;;;;;;221891;1256;22544;-58
2024/01/26 13:43:18;;;;;;;4.80;2.30;;;23.10;46.50;;;;;;222386;1250;22539;-55
2024/01/26 13:48:22;;;;;;;3.70;2.50;;;22.90;46.70;;;;;;221265;1266;25300;-57
2024/01/26 13:53:27;;;;;;;3.10;2.50;;;22.90;46.20;;;;;;221135;1262;23709;-57
2024/01/26 13:58:31;;;;;;;3.40;2.50;;;22.80;46.40;;;;;;220949;1271;23135;-57
2024/01/26 14:03:38;;;;;;;3.70;2.40;;;22.80;47.00;;;;;;221125;1263;24193;-57
2024/01/26 14:08:43;;;;;;;3.80;2.70;;;22.90;48.00;;;;;;222026;1266;26682;-56
2024/01/26 14:13:48;;;;;;;6.00;2.40;;;22.80;47.90;;;;;;221869;1269;22523;-55
2024/01/26 14:18:53;;;;;;;3.20;2.20;;;22.80;48.50;;;;;;222062;1269;24380;-58
2024/01/26 14:23:58;;;;;;;4.00;2.30;;;22.80;49.20;;;;;;221822;1269;22524;-56
2024/01/26 14:29:10;;;;;;;3.60;2.60;;;22.80;49.00;;;;;;222277;1255;25233;-57
2024/01/26 14:34:14;;;;;;;;;;;23.00;48.50;;;;;;221768;1258;24237;-56
2024/01/26 14:39:20;;;;;;;3.90;2.40;;;23.10;48.00;;;;;;221957;1268;22536;-57
2024/01/26 14:44:25;;;;;;;4.40;2.70;;;23.20;47.90;;;;;;222252;1266;22520;-57
2024/01/26 14:49:30;;;;;;;4.40;2.40;;;23.30;47.60;;;;;;222259;1263;25403;-57
2024/01/26 14:54:37;;;;;;;3.30;2.10;;;23.30;47.80;;;;;;222542;1260;22517;-55
2024/01/26 14:59:42;;;;;;;5.90;2.50;;;23.30;47.60;;;;;;222099;1257;22546;-55
2024/01/26 15:04:46;;;;;;;3.50;2.60;;;23.20;47.80;;;;;;222448;1263;24336;-55
2024/01/26 15:09:51;;;;;;;4.30;2.60;;;23.10;47.80;;;;;;222290;1263;24223;-52
2024/01/26 15:14:56;;;;;;;2.50;2.30;;;23.10;47.70;;;;;;221891;1265;22602;-54
2024/01/26 15:20:06;;;;;;;4.90;2.60;;;23.10;47.70;;;;;;222256;1266;23895;-50
2024/01/26 15:25:13;;;;;;;3.30;2.50;;;23.10;47.60;;;;;;221967;1263;22472;-54
2024/01/26 15:30:18;;;;;;;4.10;2.50;;;23.10;47.50;;;;;;222049;1267;26747;-55
2024/01/26 15:35:22;;;;;;;3.40;2.50;;;22.90;47.90;;;;;;221868;1255;24210;-54
2024/01/26 15:40:27;;;;;;;3.10;2.80;;;22.90;47.80;;;;;;222520;1269;24230;-53
2024/01/26 15:45:32;;;;;;;5.60;2.80;;;22.80;47.90;;;;;;221856;1268;22645;-55
2024/01/26 15:50:37;;;;;;;6.50;2.90;;;22.80;47.80;;;;;;221856;1259;23996;-53
2024/01/26 15:55:42;;;;;;;9.10;3.30;;;22.70;48.00;;;;;;221899;1268;26745;-56
2024/01/26 16:00:48;;;;;;;7.60;3.10;;;22.70;47.80;;;;;;221836;1257;22523;-55
2024/01/26 16:05:52;;;;;;;3.40;2.80;;;22.80;48.10;;;;;;222174;1254;22526;-52
2024/01/26 16:10:59;;;;;;;4.70;3.30;;;22.90;48.50;;;;;;221520;1262;26518;-54
2024/01/26 16:16:04;;;;;;;5.80;3.00;;;23.00;47.80;;;;;;222016;1256;22640;-55
2024/01/26 16:21:09;;;;;;;4.30;3.20;;;23.10;47.60;;;;;;221740;1256;26075;-56
2024/01/26 16:26:15;;;;;;;6.50;3.20;;;23.20;48.00;;;;;;221918;1263;24209;-57
2024/01/26 16:31:20;;;;;;;8.30;3.50;;;23.30;48.60;;;;;;221815;1257;22531;-55
2024/01/26 16:36:26;;;;;;;5.60;3.30;;;23.20;48.70;;;;;;221813;1263;24138;-57
2024/01/26 16:41:31;;;;;;;5.50;3.80;;;23.20;48.70;;;;;;222195;1256;22533;-57
2024/01/26 16:46:36;;;;;;;6.00;3.30;;;23.20;49.90;;;;;;222002;1270;24186;-56
2024/01/26 16:51:40;;;;;;;4.40;3.60;;;23.30;49.50;;;;;;221542;1263;22538;-57
2024/01/26 16:56:44;;;;;;;5.40;3.60;;;23.10;49.40;;;;;;222884;1268;22684;-56
2024/01/26 17:01:53;;;;;;;4.90;3.70;;;23.10;49.90;;;;;;222050;1264;24212;-56
2024/01/26 17:06:59;;;;;;;6.70;3.60;;;23.10;49.80;;;;;;222240;1263;25385;-56
2024/01/26 17:12:06;;;;;;;6.50;3.90;;;23.10;49.70;;;;;;221814;1258;22521;-56
2024/01/26 17:17:11;;;;;;;8.30;4.10;;;23.10;49.70;;;;;;221770;1255;24916;-57
2024/01/26 17:22:15;;;;;;;8.20;4.60;;;23.00;49.70;;;;;;221592;1263;22520;-55
2024/01/26 17:27:20;;;;;;;11.20;4.40;;;23.10;49.90;;;;;;221723;1266;250400;-55
2024/01/26 17:32:25;;;;;;;11.40;4.60;;;23.20;49.40;;;;;;222350;1258;23908;-56
2024/01/26 17:37:30;;;;;;;10.30;5.00;;;23.20;49.00;;;;;;221838;1269;22764;-57
2024/01/26 17:42:34;;;;;;;13.00;5.60;;;23.20;49.20;;;;;;222105;1266;22538;-53
2024/01/26 17:47:42;;;;;;;14.10;5.40;;;23.20;49.70;;;;;;221943;1252;24220;-56
2024/01/26 17:52:47;;;;;;;19.50;5.50;;;23.20;49.30;;;;;;221947;1263;24233;-58
2024/01/26 17:57:51;;;;;;;15.10;5.50;;;23.10;49.50;;;;;;221825;1270;23807;-56
2024/01/26 18:02:55;;;;;;;17.20;5.70;;;23.10;49.30;;;;;;221634;1267;24232;-56
2024/01/26 18:08:00;;;;;;;22.10;6.10;;;23.10;49.20;;;;;;222212;1263;23862;-55
2024/01/26 18:13:04;;;;;;;18.80;5.30;;;22.80;49.70;;;;;;221769;1267;22643;-56
2024/01/26 18:18:08;;;;;;;16.00;5.50;;;22.80;49.50;;;;;;222031;1254;22782;-51
2024/01/26 18:23:14;;;;;;;15.60;6.60;;;22.80;50.40;;;;;;222068;1268;24179;-55
2024/01/26 18:28:23;;;;;;;15.50;5.70;;;22.70;50.60;;;;;;222056;1265;22615;-57
2024/01/26 18:33:27;;;;;;;15.40;4.70;;;22.90;51.60;;;;;;221848;1255;22790;-55
2024/01/26 18:38:33;;;;;;;18.90;5.20;;;22.90;51.10;;;;;;221935;1270;22542;-55
2024/01/26 18:43:38;;;;;;;15.60;5.10;;;23.00;51.50;;;;;;222027;1262;23288;-55
2024/01/26 18:48:44;;;;;;;15.90;5.30;;;23.10;51.00;;;;;;221808;1258;24175;-56
2024/01/26 18:53:49;;;;;;;13.00;4.80;;;23.20;50.70;;;;;;221990;1255;22635;-55
2024/01/26 18:58:54;;;;;;;11.10;4.60;;;23.30;51.10;;;;;;221933;1248;23285;-52
2024/01/26 19:04:00;;;;;;;12.30;4.40;;;23.20;51.00;;;;;;221945;1247;25144;-55
2024/01/26 19:09:10;;;;;;;14.10;4.70;;;23.10;50.80;;;;;;222060;1269;25396;-54
2024/01/26 19:14:14;;;;;;;25.50;5.30;;;23.10;51.00;;;;;;221858;1254;22527;-60
2024/01/26 19:19:18;;;;;;;10.20;4.80;;;23.20;51.80;;;;;;221921;1268;24202;-56
2024/01/26 19:24:24;;;;;;;10.20;4.30;;;23.00;51.00;;;;;;221930;1268;25053;-56
2024/01/26 19:29:30;;;;;;;9.10;4.00;;;23.00;51.60;;;;;;221802;1254;25202;-58
2024/01/26 19:34:34;;;;;;;7.30;3.70;;;23.00;52.00;;;;;;222064;1269;22539;-56
2024/01/26 19:39:42;;;;;;;10.80;4.60;;;23.00;52.00;;;;;;221910;1263;25352;-58
2024/01/26 19:44:48;;;;;;;7.10;3.70;;;22.90;52.30;;;;;;221914;1268;22538;-58
2024/01/26 19:49:53;;;;;;;8.50;3.50;;;22.90;53.00;;;;;;222009;1263;24234;-58
2024/01/26 19:54:58;;;;;;;7.90;3.50;;;22.80;52.50;;;;;;221749;1268;24348;-59
2024/01/26 20:00:04;;;;;;;9.40;3.60;;;22.80;51.90;;;;;;221949;1270;25527;-59
2024/01/26 20:05:09;;;;;;;5.90;3.00;;;23.00;52.50;;;;;;221692;1259;25231;-58
2024/01/26 20:10:18;;;;;;;5.70;2.40;;;22.80;51.80;;;;;;221950;1269;22937;-54
2024/01/26 20:15:24;;;;;;;7.60;2.20;;;22.70;52.50;;;;;;222078;1264;25281;-54
2024/01/26 20:20:29;;;;;;;2.80;1.70;;;22.60;52.90;;;;;;221774;1263;22737;-54
2024/01/26 20:25:42;;;;;;;3.80;2.10;;;22.60;53.20;;;;;;221891;1265;24742;-55
2024/01/26 20:30:47;;;;;;;6.70;1.70;;;22.50;52.90;;;;;;221732;1269;24176;-52
2024/01/26 20:35:52;;;;;;;4.10;2.00;;;22.50;52.80;;;;;;221961;1267;26118;-53
2024/01/26 20:40:57;;;;;;;5.10;1.90;;;22.50;53.00;;;;;;222006;1258;24211;-52
2024/01/26 20:46:03;;;;;;;3.70;1.30;;;22.60;52.60;;;;;;221892;1265;24308;-55
2024/01/26 20:51:12;;;;;;;3.20;1.50;;;22.50;52.70;;;;;;221899;1267;22537;-56
2024/01/26 20:56:17;;;;;;;3.30;1.40;;;22.40;52.60;;;;;;222067;1257;23180;-58
2024/01/26 21:01:22;;;;;;;3.30;1.30;;;22.40;52.90;;;;;;221803;1255;23259;-58
2024/01/26 21:06:27;;;;;;;1.10;0.90;;;22.60;52.60;;;;;;221923;1269;22550;-55
2024/01/26 21:11:33;;;;;;;4.80;1.10;;;22.90;51.40;;;;;;221960;1259;22538;-55
2024/01/26 21:16:38;;;;;;;2.70;1.20;;;23.10;51.90;;;;;;222021;1257;22543;-56
2024/01/26 21:21:43;;;;;;;3.30;1.20;;;23.10;51.30;;;;;;222012;1263;24257;-54
2024/01/26 21:26:48;;;;;;;2.00;0.90;;;23.20;51.10;;;;;;221633;1255;26528;-52
2024/01/26 21:31:52;;;;;;;2.00;1.10;;;23.20;51.10;;;;;;221827;1269;22591;-52
2024/01/26 21:36:57;;;;;;;2.40;0.80;;;23.20;51.00;;;;;;221942;1265;22544;-51
2024/01/26 21:42:02;;;;;;;1.30;0.70;;;23.30;50.50;;;;;;222162;1270;22537;-50
2024/01/26 21:47:07;;;;;;;1.10;0.70;;;23.30;50.30;;;;;;222210;1267;24203;-53
2024/01/26 21:52:13;;;;;;;5.60;0.80;;;23.20;50.20;;;;;;221689;1254;25401;-54
2024/01/26 21:57:18;;;;;;;2.90;0.80;;;23.10;55.10;;;;;;221853;1260;25272;-56
2024/01/26 22:02:25;;;;;;;1.30;1.00;;;23.20;53.10;;;;;;222005;1254;24312;-54
2024/01/26 22:07:29;;;;;;;1.70;0.80;;;23.10;53.60;;;;;;221947;1270;22612;-59
2024/01/26 22:12:35;;;;;;;1.80;0.70;;;23.10;53.30;;;;;;221539;1267;22522;-57
2024/01/26 22:17:40;;;;;;;1.20;0.70;;;23.00;53.10;;;;;;221937;1267;25275;-54
2024/01/26 22:22:48;;;;;;;0.80;0.50;;;22.90;53.30;;;;;;222006;1263;23286;-56
2024/01/26 22:27:53;;;;;;;1.00;0.50;;;22.90;53.70;;;;;;221986;1254;24204;-53
2024/01/26 22:32:58;;;;;;;2.90;0.60;;;22.80;53.40;;;;;;222082;1268;23184;-56
2024/01/26 22:38:03;;;;;;;1.10;0.50;;;22.90;53.20;;;;;;222289;1255;24206;-56
2024/01/26 22:43:09;;;;;;;1.10;1.00;;;22.80;53.20;;;;;;221912;1257;22562;-51
2024/01/26 22:48:14;;;;;;;1.60;0.60;;;22.80;53.50;;;;;;222200;1267;22538;-56
2024/01/26 22:53:19;;;;;;;1.40;0.70;;;22.80;53.30;;;;;;221828;1267;26104;-56
2024/01/26 22:58:24;;;;;;;1.40;0.60;;;22.80;53.20;;;;;;221956;1264;25250;-55
2024/01/26 23:03:28;;;;;;;1.00;0.50;;;22.70;53.30;;;;;;221780;1254;24258;-54
2024/01/26 23:08:34;;;;;;;1.20;0.70;;;22.90;52.90;;;;;;222022;1267;24229;-55
2024/01/26 23:13:38;;;;;;;1.10;0.50;;;23.10;52.10;;;;;;222242;1267;25397;-54
2024/01/26 23:18:44;;;;;;;2.00;0.50;;;23.30;52.10;;;;;;222200;1248;25521;-56
2024/01/26 23:23:48;;;;;;;1.30;0.80;;;23.30;51.70;;;;;;221977;1263;25397;-54
2024/01/26 23:28:53;;;;;;;1.60;0.90;;;23.40;51.50;;;;;;221942;1249;22526;-56
2024/01/26 23:33:57;;;;;;;1.10;0.70;;;23.40;51.60;;;;;;221826;1266;25451;-56
2024/01/26 23:39:04;;;;;;;1.30;0.70;;;23.40;51.50;;;;;;222012;1263;25331;-56
2024/01/26 23:44:09;;;;;;;2.10;0.50;;;23.50;51.50;;;;;;221876;1266;25315;-56
2024/01/26 23:49:14;;;;;;;1.20;0.40;;;23.50;51.60;;;;;;221903;1257;24243;-55
2024/01/26 23:54:19;;;;;;;1.90;0.60;;;23.40;51.90;;;;;;221858;1263;22520;-55
2024/01/26 23:59:24;;;;;;;0.70;0.50;;;23.30;52.50;;;;;;222032;1248;22575;-54
